createdAt,value
2022-11-18T00:01:33.014Z,25.00
2022-11-18T00:04:01.259Z,22.70
2022-11-18T00:06:30.469Z,21.70
2022-11-18T00:09:00.589Z,22.90
2022-11-18T00:11:48.110Z,19.20
2022-11-18T00:14:38.868Z,23.20
2022-11-18T00:20:50.244Z,19.50
2022-11-18T00:23:18.624Z,17.40
2022-11-18T00:25:46.888Z,17.10
2022-11-18T00:28:15.187Z,19.00
2022-11-18T00:30:43.561Z,19.60
2022-11-18T00:33:11.861Z,19.50
2022-11-18T00:35:40.133Z,60.00
2022-11-18T00:38:08.523Z,44.30
2022-11-18T00:40:36.806Z,23.60
2022-11-18T00:43:05.099Z,27.50
2022-11-18T00:45:33.576Z,23.20
2022-11-18T00:48:03.083Z,22.10
2022-11-18T00:50:31.863Z,18.70
2022-11-18T00:53:00.184Z,18.00
2022-11-18T00:55:28.432Z,20.40
2022-11-18T00:57:56.989Z,20.40
2022-11-18T01:00:25.480Z,21.40
2022-11-18T01:02:53.738Z,19.10
2022-11-18T01:05:22.039Z,19.90
2022-11-18T01:07:50.667Z,19.30
2022-11-18T01:10:19.069Z,22.70
2022-11-18T01:13:05.678Z,20.90
2022-11-18T01:15:42.178Z,22.80
2022-11-18T01:18:11.429Z,18.60
2022-11-18T01:20:39.755Z,18.40
2022-11-18T01:23:08.129Z,18.10
2022-11-18T01:25:38.685Z,19.50
2022-11-18T01:28:07.099Z,16.30
2022-11-18T01:30:41.059Z,21.50
2022-11-18T01:33:09.483Z,27.30
2022-11-18T01:35:39.818Z,22.70
2022-11-18T01:38:10.606Z,19.90
2022-11-18T01:40:39.971Z,18.20
2022-11-18T01:43:19.624Z,18.90
2022-11-18T01:45:50.974Z,16.10
2022-11-18T01:48:29.118Z,14.20
2022-11-18T01:51:00.505Z,16.80
2022-11-18T01:53:33.415Z,16.00
2022-11-18T01:56:07.032Z,14.20
2022-11-18T01:58:42.682Z,13.60
2022-11-18T02:01:11.709Z,15.20
2022-11-18T02:03:40.371Z,13.60
2022-11-18T02:06:10.388Z,13.90
2022-11-18T02:11:34.202Z,15.80
2022-11-18T02:14:06.087Z,14.00
2022-11-18T02:17:01.977Z,11.80
2022-11-18T02:19:47.778Z,11.30
2022-11-18T02:22:40.203Z,11.20
2022-11-18T02:25:29.407Z,12.60
2022-11-18T02:28:09.742Z,11.50
2022-11-18T02:31:07.069Z,10.20
2022-11-18T02:33:47.625Z,11.10
2022-11-18T02:37:04.339Z,13.10
2022-11-18T02:39:43.569Z,12.00
2022-11-18T02:42:15.184Z,12.50
2022-11-18T02:44:51.137Z,8.40
2022-11-18T02:47:22.252Z,8.50
2022-11-18T02:49:56.976Z,12.10
2022-11-18T02:52:27.851Z,8.90
2022-11-18T02:54:58.619Z,12.20
2022-11-18T02:57:30.469Z,10.90
2022-11-18T02:59:58.774Z,11.20
2022-11-18T03:02:27.168Z,8.90
2022-11-18T03:04:58.719Z,9.60
2022-11-18T03:07:32.560Z,8.40
2022-11-18T03:10:02.584Z,10.50
2022-11-18T03:12:51.080Z,10.80
2022-11-18T03:15:45.090Z,9.70
2022-11-18T03:18:18.906Z,11.00
2022-11-18T03:20:59.224Z,9.20
2022-11-18T03:23:41.652Z,10.50
2022-11-18T03:26:14.807Z,9.80
2022-11-18T03:28:43.036Z,11.80
2022-11-18T03:31:49.828Z,8.80
2022-11-18T03:34:39.886Z,11.80
2022-11-18T03:37:14.915Z,11.40
2022-11-18T03:39:49.863Z,10.70
2022-11-18T03:42:28.972Z,8.80
2022-11-18T03:45:03.943Z,9.40
2022-11-18T03:47:37.620Z,7.50
2022-11-18T03:50:26.235Z,8.40
2022-11-18T03:52:55.589Z,9.00
2022-11-18T03:55:29.730Z,9.80
2022-11-18T03:58:08.761Z,7.80
2022-11-18T04:00:48.157Z,8.90
2022-11-18T04:03:16.686Z,7.10
2022-11-18T04:05:45.088Z,5.70
2022-11-18T04:08:21.350Z,8.90
2022-11-18T04:10:58.058Z,6.30
2022-11-18T04:13:33.155Z,7.80
2022-11-18T04:16:01.593Z,6.10
2022-11-18T04:18:29.890Z,5.70
2022-11-18T04:20:58.322Z,5.30
2022-11-18T04:23:26.659Z,6.90
2022-11-18T04:25:55.563Z,6.20
2022-11-18T04:28:23.996Z,4.60
2022-11-18T04:30:52.357Z,4.30
2022-11-18T04:33:20.658Z,5.30
2022-11-18T04:35:49.280Z,5.70
2022-11-18T04:38:21.785Z,3.90
2022-11-18T04:40:50.453Z,5.00
2022-11-18T04:43:18.841Z,5.10
2022-11-18T04:45:47.145Z,5.00
2022-11-18T04:48:16.283Z,5.50
2022-11-18T04:50:44.819Z,5.70
2022-11-18T04:53:13.091Z,5.40
2022-11-18T04:55:41.399Z,6.20
2022-11-18T04:58:09.901Z,5.00
2022-11-18T05:00:38.194Z,5.70
2022-11-18T05:03:06.510Z,5.00
2022-11-18T05:05:35.251Z,4.80
2022-11-18T05:08:03.547Z,4.60
2022-11-18T05:10:31.872Z,4.50
2022-11-18T05:13:00.243Z,4.90
2022-11-18T05:15:28.507Z,4.20
2022-11-18T05:17:56.811Z,2.80
2022-11-18T05:20:25.198Z,4.40
2022-11-18T05:22:53.459Z,2.50
2022-11-18T05:25:21.749Z,2.70
2022-11-18T05:27:50.121Z,2.60
2022-11-18T05:30:18.495Z,3.30
2022-11-18T05:32:46.784Z,2.70
2022-11-18T05:35:15.310Z,3.00
2022-11-18T05:37:43.594Z,3.50
2022-11-18T05:40:12.156Z,2.80
2022-11-18T05:42:58.968Z,3.90
2022-11-18T05:45:27.633Z,7.30
2022-11-18T05:48:03.264Z,6.10
2022-11-18T05:50:33.639Z,2.80
2022-11-18T05:53:02.711Z,3.60
2022-11-18T05:55:41.049Z,5.20
2022-11-18T05:58:09.424Z,8.40
2022-11-18T06:00:38.069Z,13.40
2022-11-18T06:03:16.059Z,24.70
2022-11-18T06:05:44.748Z,25.00
2022-11-18T06:08:16.569Z,16.20
2022-11-18T06:10:46.748Z,10.90
2022-11-18T06:15:49.082Z,10.60
2022-11-18T06:18:19.614Z,8.50
2022-11-18T06:20:48.150Z,8.20
2022-11-18T06:23:16.611Z,8.60
2022-11-18T06:25:44.946Z,5.10
2022-11-18T06:28:15.642Z,3.70
2022-11-18T06:30:44.113Z,5.10
2022-11-18T06:33:12.424Z,3.90
2022-11-18T06:35:43.084Z,4.10
2022-11-18T06:38:11.527Z,3.80
2022-11-18T06:40:39.843Z,4.70
2022-11-18T06:43:27.420Z,3.80
2022-11-18T06:46:19.343Z,5.60
2022-11-18T06:48:48.641Z,5.80
2022-11-18T06:51:17.369Z,4.90
2022-11-18T06:53:45.808Z,4.50
2022-11-18T06:56:16.600Z,5.70
2022-11-18T06:58:45.392Z,4.80
2022-11-18T07:01:25.124Z,4.30
2022-11-18T07:03:54.262Z,4.80
2022-11-18T07:06:25.267Z,4.80
2022-11-18T07:08:53.739Z,4.50
2022-11-18T07:11:25.315Z,2.80
2022-11-18T07:13:54.374Z,4.40
2022-11-18T07:16:25.094Z,6.00
2022-11-18T07:18:55.142Z,4.10
2022-11-18T07:21:26.069Z,4.20
2022-11-18T07:23:56.057Z,4.70
2022-11-18T07:26:24.503Z,5.30
2022-11-18T07:28:54.024Z,4.20
2022-11-18T07:31:22.495Z,5.80
2022-11-18T07:33:53.723Z,3.90
2022-11-18T07:36:24.828Z,7.80
2022-11-18T07:38:53.556Z,8.40
2022-11-18T07:41:24.557Z,7.80
2022-11-18T07:43:59.098Z,6.20
2022-11-18T07:46:31.884Z,4.30
2022-11-18T07:49:03.011Z,4.90
2022-11-18T07:51:35.306Z,3.30
2022-11-18T07:54:11.496Z,4.80
2022-11-18T07:56:40.394Z,3.40
2022-11-18T07:59:09.084Z,4.40
2022-11-18T08:01:37.510Z,4.50
2022-11-18T08:04:08.497Z,5.40
2022-11-18T08:06:37.707Z,4.00
2022-11-18T08:09:07.814Z,5.30
2022-11-18T08:14:04.910Z,4.80
2022-11-18T08:16:33.303Z,4.20
2022-11-18T08:19:01.721Z,6.00
2022-11-18T08:21:30.052Z,5.10
2022-11-18T08:23:59.254Z,5.80
2022-11-18T08:26:28.088Z,7.80
2022-11-18T08:28:57.646Z,4.60
2022-11-18T08:31:28.089Z,4.90
2022-11-18T08:33:58.181Z,3.30
2022-11-18T08:39:01.528Z,5.70
2022-11-18T08:41:33.119Z,4.70
2022-11-18T08:44:02.437Z,5.10
2022-11-18T08:46:30.926Z,5.50
2022-11-18T08:48:59.641Z,3.70
2022-11-18T08:51:28.694Z,6.90
2022-11-18T08:53:57.129Z,5.10
2022-11-18T08:56:26.058Z,3.90
2022-11-18T08:58:54.597Z,4.20
2022-11-18T09:01:23.331Z,4.70
2022-11-18T09:03:52.175Z,5.00
2022-11-18T09:06:23.011Z,19.40
2022-11-18T09:08:51.989Z,20.60
2022-11-18T09:11:23.800Z,26.90
2022-11-18T09:14:53.526Z,21.80
2022-11-18T09:16:46.447Z,17.50
2022-11-18T09:22:05.559Z,7.30
2022-11-18T09:24:35.346Z,10.40
2022-11-18T09:27:05.831Z,9.00
2022-11-18T09:29:34.183Z,6.40
2022-11-18T09:32:02.873Z,10.60
2022-11-18T09:34:31.175Z,6.50
2022-11-18T09:36:59.512Z,4.50
2022-11-18T09:39:27.811Z,6.30
2022-11-18T09:41:59.119Z,6.30
2022-11-18T09:44:42.837Z,14.20
2022-11-18T09:47:14.036Z,13.00
2022-11-18T09:49:45.185Z,14.00
2022-11-18T09:52:24.855Z,15.10
2022-11-18T09:54:53.484Z,9.80
2022-11-18T09:57:26.523Z,12.30
2022-11-18T09:59:54.975Z,10.30
2022-11-18T10:02:23.332Z,10.60
2022-11-18T10:04:52.771Z,7.60
2022-11-18T10:07:37.238Z,9.50
2022-11-18T10:10:15.433Z,5.40
2022-11-18T10:13:00.421Z,9.40
2022-11-18T10:15:42.562Z,12.30
2022-11-18T10:21:38.497Z,9.00
2022-11-18T10:24:20.759Z,10.90
2022-11-18T10:26:59.174Z,21.30
2022-11-18T10:29:27.764Z,19.40
2022-11-18T10:32:07.124Z,10.50
2022-11-18T10:34:50.702Z,71.00
2022-11-18T10:38:06.259Z,37.00
2022-11-18T10:40:27.894Z,25.90
2022-11-18T10:42:56.681Z,109.10
2022-11-18T10:45:31.233Z,47.40
2022-11-18T10:48:19.483Z,12.80
2022-11-18T10:50:55.500Z,26.80
2022-11-18T10:53:37.853Z,14.30
2022-11-18T10:56:13.515Z,8.60
2022-11-18T10:58:49.036Z,10.00
2022-11-18T11:01:27.481Z,9.40
2022-11-18T11:04:20.312Z,14.40
2022-11-18T11:06:48.766Z,9.10
2022-11-18T11:09:29.149Z,17.40
2022-11-18T11:12:18.263Z,39.90
2022-11-18T11:15:00.661Z,22.90
2022-11-18T11:17:37.154Z,21.10
2022-11-18T11:20:17.948Z,23.60
2022-11-18T11:22:46.686Z,17.60
2022-11-18T11:28:35.249Z,5.70
2022-11-18T11:31:17.534Z,6.50
2022-11-18T11:34:23.453Z,9.50
2022-11-18T11:37:11.264Z,10.50
2022-11-18T11:39:54.915Z,5.30
2022-11-18T11:42:35.418Z,13.60
2022-11-18T11:45:03.766Z,14.80
2022-11-18T11:47:47.062Z,17.70
2022-11-18T11:50:16.753Z,65.00
2022-11-18T11:53:03.440Z,42.50
2022-11-18T11:55:49.449Z,18.20
2022-11-18T11:58:50.909Z,12.10
2022-11-18T12:01:34.388Z,12.60
2022-11-18T12:04:50.803Z,12.30
2022-11-18T12:07:26.215Z,19.00
2022-11-18T12:10:02.881Z,11.90
2022-11-18T12:12:42.735Z,6.70
2022-11-18T12:15:20.376Z,8.70
2022-11-18T12:17:57.679Z,10.30
2022-11-18T12:20:47.324Z,10.80
2022-11-18T12:23:27.695Z,21.10
2022-11-18T12:26:10.234Z,11.10
2022-11-18T12:28:43.766Z,8.00
2022-11-18T12:31:18.300Z,7.10
2022-11-18T12:34:38.878Z,15.00
2022-11-18T12:37:25.467Z,31.20
2022-11-18T12:39:57.623Z,36.20
2022-11-18T12:42:56.501Z,51.00
2022-11-18T12:45:46.083Z,37.20
2022-11-18T12:48:39.476Z,26.00
2022-11-18T12:51:48.058Z,64.80
2022-11-18T12:54:46.703Z,49.70
2022-11-18T12:57:24.196Z,39.40
2022-11-18T12:59:53.105Z,46.10
2022-11-18T13:02:26.543Z,48.20
2022-11-18T13:05:20.094Z,34.70
2022-11-18T13:08:16.086Z,51.20
2022-11-18T13:10:44.637Z,34.10
2022-11-18T13:13:21.971Z,17.80
2022-11-18T13:16:09.912Z,42.70
2022-11-18T13:18:52.948Z,51.00
2022-11-18T13:21:44.107Z,35.90
2022-11-18T13:24:14.401Z,21.50
2022-11-18T13:26:45.347Z,28.10
2022-11-18T13:29:32.343Z,34.20
2022-11-18T13:32:22.756Z,31.70
2022-11-18T13:34:54.191Z,63.20
2022-11-18T13:37:31.665Z,55.40
2022-11-18T13:40:00.669Z,56.40
2022-11-18T13:42:31.222Z,54.20
2022-11-18T13:45:01.694Z,71.00
2022-11-18T13:47:51.247Z,51.70
2022-11-18T13:50:31.103Z,57.60
2022-11-18T13:53:15.080Z,27.20
2022-11-18T13:55:56.361Z,28.00
2022-11-18T13:59:16.458Z,52.70
2022-11-18T14:01:41.226Z,104.70
2022-11-18T14:04:23.352Z,78.50
2022-11-18T14:06:52.328Z,78.10
2022-11-18T14:09:30.076Z,37.80
2022-11-18T14:15:20.767Z,50.40
2022-11-18T14:18:00.443Z,21.20
2022-11-18T14:20:31.023Z,18.70
2022-11-18T14:23:01.315Z,21.90
2022-11-18T14:25:34.089Z,18.10
2022-11-18T14:28:26.319Z,7.80
2022-11-18T14:31:00.126Z,17.30
2022-11-18T14:33:29.796Z,16.90
2022-11-18T14:36:17.912Z,22.30
2022-11-18T14:39:19.257Z,63.90
2022-11-18T14:41:48.111Z,28.60
2022-11-18T14:44:20.790Z,42.90
2022-11-18T14:46:57.372Z,36.00
2022-11-18T14:49:27.460Z,32.90
2022-11-18T14:51:56.085Z,43.80
2022-11-18T14:54:27.482Z,21.90
2022-11-18T14:57:01.273Z,26.80
2022-11-18T14:59:30.410Z,22.00
2022-11-18T15:01:59.085Z,11.90
2022-11-18T15:04:27.628Z,10.90
2022-11-18T15:06:56.417Z,20.40
2022-11-18T15:09:24.905Z,18.00
2022-11-18T15:11:53.687Z,19.70
2022-11-18T15:14:22.175Z,16.60
2022-11-18T15:16:50.528Z,56.90
2022-11-18T15:19:19.115Z,80.90
2022-11-18T15:21:47.774Z,81.50
2022-11-18T15:24:16.613Z,65.20
2022-11-18T15:26:47.420Z,53.90
2022-11-18T15:29:21.674Z,47.90
2022-11-18T15:31:50.434Z,22.30
2022-11-18T15:34:20.950Z,21.60
2022-11-18T15:36:51.546Z,17.50
2022-11-18T15:39:19.974Z,15.40
2022-11-18T15:41:48.452Z,13.70
2022-11-18T15:44:17.342Z,13.10
2022-11-18T15:46:48.209Z,10.40
2022-11-18T15:49:18.092Z,8.10
2022-11-18T15:54:14.980Z,5.10
2022-11-18T15:56:43.373Z,5.40
2022-11-18T15:59:14.285Z,6.70
2022-11-18T16:01:47.150Z,4.80
2022-11-18T16:04:19.187Z,8.20
2022-11-18T16:06:48.431Z,5.60
2022-11-18T16:09:17.742Z,6.80
2022-11-18T16:12:05.122Z,4.40
2022-11-18T16:14:36.687Z,6.00
2022-11-18T16:17:05.251Z,9.30
2022-11-18T16:19:33.830Z,8.10
2022-11-18T16:22:02.466Z,7.20
2022-11-18T16:24:30.990Z,13.40
2022-11-18T16:26:59.435Z,16.70
2022-11-18T16:30:44.607Z,18.70
2022-11-18T16:33:16.625Z,13.20
2022-11-18T16:39:28.078Z,16.20
2022-11-18T16:42:06.932Z,21.10
2022-11-18T16:44:37.753Z,20.70
2022-11-18T16:47:13.983Z,17.20
2022-11-18T16:49:44.182Z,13.90
2022-11-18T16:52:22.948Z,12.00
2022-11-18T16:54:53.312Z,10.40
2022-11-18T16:57:23.037Z,10.80
2022-11-18T16:59:51.697Z,10.90
2022-11-18T17:02:20.690Z,12.20
2022-11-18T17:04:49.568Z,15.80
2022-11-18T17:07:18.314Z,15.70
2022-11-18T17:09:47.023Z,17.30
2022-11-18T17:12:15.646Z,28.90
2022-11-18T17:14:44.300Z,40.90
2022-11-18T17:17:13.114Z,32.30
2022-11-18T17:19:41.844Z,19.10
2022-11-18T17:22:10.263Z,11.40
2022-11-18T17:24:38.651Z,11.40
2022-11-18T17:27:07.195Z,9.60
2022-11-18T17:29:35.838Z,12.40
2022-11-18T17:32:04.431Z,14.20
2022-11-18T17:34:32.933Z,12.60
2022-11-18T17:37:06.534Z,21.60
2022-11-18T17:39:36.712Z,17.50
2022-11-18T17:42:14.619Z,19.20
2022-11-18T17:44:42.934Z,18.80
2022-11-18T17:47:11.397Z,25.80
2022-11-18T17:49:39.789Z,18.70
2022-11-18T17:52:08.321Z,15.80
2022-11-18T17:54:36.917Z,15.30
2022-11-18T17:57:06.330Z,13.90
2022-11-18T17:59:42.212Z,12.90
2022-11-18T18:02:12.938Z,14.40
2022-11-18T18:04:41.680Z,16.10
2022-11-18T18:07:10.103Z,20.90
2022-11-18T18:09:38.551Z,18.00
2022-11-18T18:12:27.184Z,27.70
2022-11-18T18:14:56.718Z,43.60
2022-11-18T18:17:25.275Z,36.70
2022-11-18T18:19:53.981Z,59.50
2022-11-18T18:22:22.772Z,29.90
2022-11-18T18:25:32.937Z,24.00
2022-11-18T18:28:04.145Z,19.70
2022-11-18T18:30:44.568Z,16.80
2022-11-18T18:33:30.270Z,22.30
2022-11-18T18:36:00.781Z,14.90
2022-11-18T18:38:35.889Z,14.60
2022-11-18T18:41:13.247Z,22.20
2022-11-18T18:43:53.509Z,23.00
2022-11-18T18:46:29.954Z,22.30
2022-11-18T18:49:08.342Z,22.80
2022-11-18T18:51:59.420Z,24.10
2022-11-18T18:54:29.113Z,23.30
2022-11-18T18:57:15.449Z,13.60
2022-11-18T18:59:44.875Z,11.90
2022-11-18T19:02:15.930Z,8.70
2022-11-18T19:04:56.306Z,8.10
2022-11-18T19:10:42.885Z,52.70
2022-11-18T19:13:14.445Z,47.70
2022-11-18T19:15:43.604Z,75.00
2022-11-18T19:18:12.185Z,47.40
2022-11-18T19:20:43.912Z,44.00
2022-11-18T19:23:12.333Z,26.80
2022-11-18T19:25:40.881Z,20.80
2022-11-18T19:28:09.587Z,17.00
2022-11-18T19:30:38.090Z,18.70
2022-11-18T19:33:06.428Z,10.80
2022-11-18T19:35:36.864Z,11.60
2022-11-18T19:38:05.281Z,9.20
2022-11-18T19:40:33.647Z,8.40
2022-11-18T19:43:02.019Z,8.60
2022-11-18T19:45:30.452Z,11.80
2022-11-18T19:48:03.080Z,11.10
2022-11-18T19:50:31.536Z,11.60
2022-11-18T19:53:19.846Z,12.80
2022-11-18T19:55:54.643Z,16.60
2022-11-18T19:58:24.174Z,14.10
2022-11-18T20:00:52.770Z,14.20
2022-11-18T20:03:21.276Z,14.10
2022-11-18T20:05:52.808Z,12.80
2022-11-18T20:08:22.970Z,11.50
2022-11-18T20:10:54.114Z,10.50
2022-11-18T20:13:22.568Z,9.40
2022-11-18T20:15:50.912Z,8.90
2022-11-18T20:18:27.083Z,8.10
2022-11-18T20:20:55.636Z,9.70
2022-11-18T20:23:24.707Z,7.30
2022-11-18T20:25:53.096Z,8.70
2022-11-18T20:28:21.698Z,9.40
2022-11-18T20:30:54.687Z,10.00
2022-11-18T20:33:23.044Z,7.70
2022-11-18T20:35:51.565Z,6.20
2022-11-18T20:38:20.009Z,6.10
2022-11-18T20:40:48.316Z,5.50
2022-11-18T20:43:17.056Z,7.20
2022-11-18T20:45:53.207Z,9.10
2022-11-18T20:48:22.719Z,10.20
2022-11-18T20:50:51.562Z,10.50
2022-11-18T20:53:19.981Z,14.10
2022-11-18T20:55:50.145Z,17.00
2022-11-18T20:58:18.913Z,16.70
2022-11-18T21:00:47.962Z,16.00
2022-11-18T21:03:16.390Z,20.00
2022-11-18T21:05:45.260Z,26.70
2022-11-18T21:08:13.679Z,29.40
2022-11-18T21:10:42.384Z,26.30
2022-11-18T21:13:29.060Z,25.90
2022-11-18T21:15:57.940Z,27.90
2022-11-18T21:18:29.590Z,35.80
2022-11-18T21:21:16.894Z,32.00
2022-11-18T21:23:45.641Z,27.40
2022-11-18T21:26:14.072Z,28.30
2022-11-18T21:28:42.578Z,29.70
2022-11-18T21:31:11.276Z,30.40
2022-11-18T21:33:39.871Z,31.90
2022-11-18T21:36:08.798Z,34.20
2022-11-18T21:38:37.364Z,34.90
2022-11-18T21:41:06.837Z,40.90
2022-11-18T21:44:03.821Z,52.40
2022-11-18T21:46:26.760Z,54.70
2022-11-18T21:48:59.903Z,61.10
2022-11-18T21:51:31.553Z,51.70
2022-11-18T21:54:01.058Z,40.50
2022-11-18T21:56:31.534Z,46.00
2022-11-18T21:59:01.761Z,53.80
2022-11-18T22:01:33.651Z,46.10
2022-11-18T22:04:04.989Z,33.80
2022-11-18T22:06:34.702Z,31.60
2022-11-18T22:09:06.263Z,30.70
2022-11-18T22:11:34.934Z,29.90
2022-11-18T22:14:04.652Z,31.80
2022-11-18T22:16:33.001Z,34.90
2022-11-18T22:19:06.675Z,32.20
2022-11-18T22:21:36.536Z,23.00
2022-11-18T22:24:05.042Z,25.60
2022-11-18T22:26:33.954Z,27.90
2022-11-18T22:29:02.585Z,41.10
2022-11-18T22:31:31.440Z,43.10
2022-11-18T22:34:00.241Z,40.70
2022-11-18T22:36:28.610Z,31.80
2022-11-18T22:38:57.179Z,26.10
2022-11-18T22:41:45.541Z,24.30
2022-11-18T22:44:16.002Z,21.70
2022-11-18T22:46:46.162Z,22.70
2022-11-18T22:49:17.311Z,26.90
2022-11-18T22:51:46.379Z,27.60
2022-11-18T22:54:37.835Z,29.40
2022-11-18T22:57:04.124Z,41.40
2022-11-18T22:59:32.450Z,62.90
2022-11-18T23:02:02.156Z,75.10
2022-11-18T23:04:30.704Z,82.50
2022-11-18T23:06:59.163Z,82.90
2022-11-18T23:09:27.857Z,64.10
2022-11-18T23:12:14.519Z,58.20
2022-11-18T23:14:43.302Z,47.60
2022-11-18T23:17:12.195Z,34.40
2022-11-18T23:19:43.919Z,27.80
2022-11-18T23:22:13.395Z,27.20
2022-11-18T23:24:42.515Z,26.00
2022-11-18T23:27:11.410Z,29.90
2022-11-18T23:29:40.682Z,36.90
2022-11-18T23:32:10.164Z,33.60
2022-11-18T23:34:39.669Z,30.40
2022-11-18T23:37:09.891Z,31.80
2022-11-18T23:39:38.425Z,38.70
2022-11-18T23:42:06.767Z,38.10
2022-11-18T23:44:47.396Z,34.10
2022-11-18T23:47:16.276Z,36.20
2022-11-18T23:49:44.694Z,42.00
2022-11-18T23:52:13.237Z,48.80
2022-11-18T23:54:41.697Z,36.80
2022-11-18T23:57:10.135Z,35.20
2022-11-18T23:59:38.474Z,34.30
